Aviation Digital Data Service (ADDS)

Output produced by METARs form (1717 UTC 26 April 2018)
found at http://aviationweather.gov/adds/metars/
 
KHKS 261120Z 2612/2712 27009KT P6SM VCSH BKN008 
     FM261400 28011G23KT P6SM VCSH BKN015 
     FM262200 30009KT P6SM BKN025 
     FM270000 31007KT P6SM FEW025 SCT250 
     FM270600 31003KT 3SM BR FEW090 SCT250